South Reno (Wolf Run), Nevada Weather observations

Data are for observation ending at time listed.
 Day   Time    Ave.   Ave.  Ave.  Vector   Max.   Stn.    Total    Solar   Ave.  
  of    of     Air    Rel.  Wind   Wind    Wind   Baro.  Precip.   Rad.    Soil  
Year   Day     Temp.  Hum.  Speed  Dir.    Gust   Pres.                    Temp. 
2017   (PST)    F      %     mph   deg.    mph     mb.     in.     W/m2     F   
------------------------------------------------------------------------------
 327    0:00   50.4    63    2.6   110      5.8  99999.0    0.00       0    49.5
 327    0:10   50.3    64    1.8   101      4.7  99999.0    0.00       0    49.5
 327    0:20   49.6    65    1.2   307      2.7  99999.0    0.00       0    49.4
 327    0:30   49.2    66    1.0   247      4.5  99999.0    0.00       0    49.4
 327    0:40   52.4    55    1.5   194      3.9  99999.0    0.00       0    49.4
 327    0:50   55.6    49    2.3   110      3.9  99999.0    0.00       0    49.3
 327    1:00   50.8    60    0.4   305      1.8  99999.0    0.00       0    49.3
 327    1:10   51.0    60    1.6    26      4.2  99999.0    0.00       0    49.3
 327    1:20   51.3    57    1.6   226      4.5  99999.0    0.00       0    49.2
 327    1:30   55.5    48    1.4   228      3.2  99999.0    0.00       0    49.2
 327    1:40   55.2    48    1.2   202      2.8  99999.0    0.00       0    49.2
 327    1:50   53.7    54    1.4    94      3.6  99999.0    0.00       0    49.1
 327    2:00   50.4    62    0.5   302      2.8  99999.0    0.00       0    49.1
 327    2:10   50.7    58    2.4   208      5.6  99999.0    0.00       0    49.1
 327    2:20   53.5    54    2.6    91      6.1  99999.0    0.00       0    49.0
 327    2:30   49.5    64    1.6   236      5.5  99999.0    0.00       0    49.0
 327    2:40   52.4    56    2.4   191      5.1  99999.0    0.00       0    49.0
 327    2:50   49.9    63    0.5   205      3.5  99999.0    0.00       0    49.0
 327    3:00   48.5    67    2.1   347      4.7  99999.0    0.00       0    48.9
 327    3:10   47.8    69    1.6   350      3.7  99999.0    0.00       0    48.9
 327    3:20   48.7    66    1.8   329      4.1  99999.0    0.00       0    48.9
 327    3:30   48.5    67    0.2   301      2.0  99999.0    0.00       0    48.8
 327    3:40   48.1    69    0.5   296      2.6  99999.0    0.00       0    48.8
 327    3:50   48.3    69    0.7   285      2.8  99999.0    0.00       0    48.8
 327    4:00   48.8    68    1.3   250      6.4  99999.0    0.00       0    48.8
 327    4:10   49.8    64    0.8    41      2.3  99999.0    0.00       0    48.7
 327    4:20   47.9    68    1.2   202      3.9  99999.0    0.00       0    48.7
 327    4:30   46.6    70    2.0   238      6.9  99999.0    0.00       0    48.7
 327    4:40   47.3    67    0.7   298      3.1  99999.0    0.00       0    48.7
 327    4:50   48.2    66    1.0   248      4.7  99999.0    0.00       0    48.6
 327    5:00   48.9    64    0.5   250      2.0  99999.0    0.00       0    48.6
 327    5:10   47.6    66    1.3   242      4.6  99999.0    0.00       0    48.6
 327    5:20   48.0    64    0.5   237      2.4  99999.0    0.00       0    48.5
 327    5:30   48.4    62    0.7   288      2.0  99999.0    0.00       0    48.5
 327    5:40   48.1    62    0.7   255      2.4  99999.0    0.00       0    48.5
 327    5:50   49.3    59    0.8   341      2.8  99999.0    0.00       0    48.5
 327    6:00   49.0    63    2.4    31      5.8  99999.0    0.00       0    48.4
 327    6:10   47.0    68    1.0   341      3.4  99999.0    0.00       0    48.4
 327    6:20   46.0    69    0.6   214      2.8  99999.0    0.00       0    48.4
 327    6:30   45.5    70    0.3    40      2.3  99999.0    0.00       0    48.3
 327    6:40   45.2    70    1.0   222      2.9  99999.0    0.00       0    48.3
 327    6:50   45.5    70    1.1   221      3.1  99999.0    0.00       1    48.3
 327    7:00   46.7    66    1.3   208      2.7  99999.0    0.00       2    48.2
 327    7:10   44.8    70    1.7   223      5.3  99999.0    0.00       4    48.2

Return to South Reno, Nevada graphs page.


Western Regional Climate Center,wrcc@dri.edu